sensor_id;sensor_type;location;lat;lon;timestamp;pressure;altitude;pressure_sealevel;temperature;humidity
52927;BME280;40783;49.710;8.842;2023-07-02T00:02:16;98402.69;;;18.31;93.63
52927;BME280;40783;49.710;8.842;2023-07-02T00:04:44;98395.16;;;18.33;93.87
52927;BME280;40783;49.710;8.842;2023-07-02T00:07:09;98398.47;;;18.35;93.44
52927;BME280;40783;49.710;8.842;2023-07-02T00:09:37;98396.72;;;18.41;93.41
52927;BME280;40783;49.710;8.842;2023-07-02T00:12:02;98390.94;;;18.37;91.98
52927;BME280;40783;49.710;8.842;2023-07-02T00:14:27;98398.94;;;18.32;91.46
52927;BME280;40783;49.710;8.842;2023-07-02T00:16:52;98395.31;;;18.38;91.56
52927;BME280;40783;49.710;8.842;2023-07-02T00:19:22;98389.16;;;18.31;91.38
52927;BME280;40783;49.710;8.842;2023-07-02T00:21:47;98385.16;;;18.33;91.99
52927;BME280;40783;49.710;8.842;2023-07-02T00:24:13;98378.94;;;18.33;91.66
52927;BME280;40783;49.710;8.842;2023-07-02T00:26:41;98384.34;;;18.33;91.23
52927;BME280;40783;49.710;8.842;2023-07-02T00:29:08;98382.41;;;18.21;88.94
52927;BME280;40783;49.710;8.842;2023-07-02T00:31:34;98387.94;;;18.27;88.67
52927;BME280;40783;49.710;8.842;2023-07-02T00:34:00;98393.97;;;18.29;89.71
52927;BME280;40783;49.710;8.842;2023-07-02T00:36:29;98396.81;;;18.34;88.63
52927;BME280;40783;49.710;8.842;2023-07-02T00:38:54;98407.59;;;18.22;87.95
52927;BME280;40783;49.710;8.842;2023-07-02T00:41:19;98403.69;;;18.18;88.97
52927;BME280;40783;49.710;8.842;2023-07-02T00:43:45;98413.66;;;18.17;88.95
52927;BME280;40783;49.710;8.842;2023-07-02T00:46:11;98423.28;;;18.13;88.46
52927;BME280;40783;49.710;8.842;2023-07-02T00:48:38;98430.34;;;18.14;88.91
52927;BME280;40783;49.710;8.842;2023-07-02T00:51:04;98436.81;;;18.13;87.77
52927;BME280;40783;49.710;8.842;2023-07-02T00:53:31;98426.97;;;18.19;88.89
52927;BME280;40783;49.710;8.842;2023-07-02T00:56:00;98427.34;;;18.22;88.61
52927;BME280;40783;49.710;8.842;2023-07-02T00:58:27;98427.94;;;18.24;88.35
52927;BME280;40783;49.710;8.842;2023-07-02T01:00:53;98430.19;;;18.28;88.12
52927;BME280;40783;49.710;8.842;2023-07-02T01:03:21;98429.25;;;18.22;87.98
52927;BME280;40783;49.710;8.842;2023-07-02T01:05:48;98427.34;;;18.22;87.53
52927;BME280;40783;49.710;8.842;2023-07-02T01:08:14;98432.75;;;18.22;87.74
52927;BME280;40783;49.710;8.842;2023-07-02T01:10:39;98424.50;;;18.17;86.73
52927;BME280;40783;49.710;8.842;2023-07-02T01:13:07;98419.97;;;18.11;87.64
52927;BME280;40783;49.710;8.842;2023-07-02T01:15:34;98412.91;;;18.10;87.59
52927;BME280;40783;49.710;8.842;2023-07-02T01:18:02;98417.88;;;18.13;87.71
52927;BME280;40783;49.710;8.842;2023-07-02T01:20:30;98425.09;;;18.19;87.21
52927;BME280;40783;49.710;8.842;2023-07-02T01:22:56;98421.78;;;18.17;86.77
52927;BME280;40783;49.710;8.842;2023-07-02T01:25:21;98415.75;;;18.15;86.89
52927;BME280;40783;49.710;8.842;2023-07-02T01:27:49;98413.81;;;18.04;86.86
52927;BME280;40783;49.710;8.842;2023-07-02T01:30:15;98420.88;;;18.05;86.74
52927;BME280;40783;49.710;8.842;2023-07-02T01:32:43;98413.50;;;17.93;87.54
52927;BME280;40783;49.710;8.842;2023-07-02T01:35:11;98406.63;;;17.91;87.60
52927;BME280;40783;49.710;8.842;2023-07-02T01:37:36;98422.81;;;17.98;87.02
52927;BME280;40783;49.710;8.842;2023-07-02T01:40:05;98413.09;;;17.90;87.05
52927;BME280;40783;49.710;8.842;2023-07-02T01:42:36;98423.09;;;17.89;87.41
52927;BME280;40783;49.710;8.842;2023-07-02T01:45:04;98421.00;;;17.91;87.13
52927;BME280;40783;49.710;8.842;2023-07-02T01:47:29;98421.91;;;17.85;86.74
52927;BME280;40783;49.710;8.842;2023-07-02T01:49:59;98419.34;;;17.90;86.55
52927;BME280;40783;49.710;8.842;2023-07-02T01:52:24;98419.34;;;17.90;86.22
52927;BME280;40783;49.710;8.842;2023-07-02T01:54:49;98425.66;;;17.84;86.57
52927;BME280;40783;49.710;8.842;2023-07-02T01:57:17;98422.34;;;17.82;86.35
52927;BME280;40783;49.710;8.842;2023-07-02T01:59:46;98418.88;;;17.75;86.68
52927;BME280;40783;49.710;8.842;2023-07-02T02:02:12;98423.31;;;17.69;86.07
52927;BME280;40783;49.710;8.842;2023-07-02T02:04:37;98432.50;;;17.61;86.71
52927;BME280;40783;49.710;8.842;2023-07-02T02:07:02;98419.16;;;17.67;86.53
52927;BME280;40783;49.710;8.842;2023-07-02T02:09:27;98429.81;;;17.61;86.63
52927;BME280;40783;49.710;8.842;2023-07-02T02:11:55;98422.03;;;17.46;86.65
52927;BME280;40783;49.710;8.842;2023-07-02T02:14:22;98424.53;;;17.48;86.96
52927;BME280;40783;49.710;8.842;2023-07-02T02:16:50;98421.38;;;17.51;86.01
52927;BME280;40783;49.710;8.842;2023-07-02T02:19:17;98427.25;;;17.48;83.78
52927;BME280;40783;49.710;8.842;2023-07-02T02:21:43;98423.94;;;17.46;85.61
52927;BME280;40783;49.710;8.842;2023-07-02T02:24:10;98434.41;;;17.35;84.48
52927;BME280;40783;49.710;8.842;2023-07-02T02:26:36;98430.25;;;17.33;84.55
52927;BME280;40783;49.710;8.842;2023-07-02T02:29:01;98426.13;;;17.30;80.28
52927;BME280;40783;49.710;8.842;2023-07-02T02:31:27;98419.50;;;17.26;79.54
52927;BME280;40783;49.710;8.842;2023-07-02T02:33:53;98423.63;;;17.29;83.00
52927;BME280;40783;49.710;8.842;2023-07-02T02:36:20;98433.19;;;17.31;83.25
52927;BME280;40783;49.710;8.842;2023-07-02T02:38:46;98425.63;;;17.40;81.99
52927;BME280;40783;49.710;8.842;2023-07-02T02:41:15;98429.00;;;17.35;79.30
52927;BME280;40783;49.710;8.842;2023-07-02T02:43:41;98427.34;;;17.34;81.36
52927;BME280;40783;49.710;8.842;2023-07-02T02:46:10;98436.94;;;17.30;79.05
52927;BME280;40783;49.710;8.842;2023-07-02T02:48:36;98433.28;;;17.18;78.87
52927;BME280;40783;49.710;8.842;2023-07-02T02:51:01;98432.31;;;17.05;80.83
52927;BME280;40783;49.710;8.842;2023-07-02T02:53:26;98429.28;;;16.95;81.62
52927;BME280;40783;49.710;8.842;2023-07-02T02:55:54;98434.88;;;16.94;82.25
52927;BME280;40783;49.710;8.842;2023-07-02T02:58:19;98437.97;;;16.97;81.65
52927;BME280;40783;49.710;8.842;2023-07-02T03:00:44;98433.81;;;17.01;80.17
52927;BME280;40783;49.710;8.842;2023-07-02T03:03:11;98432.75;;;17.02;81.33
52927;BME280;40783;49.710;8.842;2023-07-02T03:05:36;98424.47;;;16.97;80.53
52927;BME280;40783;49.710;8.842;2023-07-02T03:08:01;98424.66;;;17.02;80.85
52927;BME280;40783;49.710;8.842;2023-07-02T03:10:27;98423.63;;;17.03;80.06
52927;BME280;40783;49.710;8.842;2023-07-02T03:12:54;98426.13;;;16.98;79.26
52927;BME280;40783;49.710;8.842;2023-07-02T03:15:19;98424.13;;;16.87;79.52
52927;BME280;40783;49.710;8.842;2023-07-02T03:17:49;98423.06;;;16.88;78.98
52927;BME280;40783;49.710;8.842;2023-07-02T03:20:16;98433.75;;;16.69;78.44
52927;BME280;40783;49.710;8.842;2023-07-02T03:22:41;98431.94;;;16.63;78.24
52927;BME280;40783;49.710;8.842;2023-07-02T03:25:09;98425.91;;;16.61;78.08
52927;BME280;40783;49.710;8.842;2023-07-02T03:27:34;98428.25;;;16.51;76.59
52927;BME280;40783;49.710;8.842;2023-07-02T03:30:02;98436.53;;;16.56;78.37
52927;BME280;40783;49.710;8.842;2023-07-02T03:32:29;98422.81;;;16.57;76.69
52927;BME280;40783;49.710;8.842;2023-07-02T03:34:54;98424.06;;;16.55;76.45
52927;BME280;40783;49.710;8.842;2023-07-02T03:37:19;98438.59;;;16.60;77.52
52927;BME280;40783;49.710;8.842;2023-07-02T03:39:45;98436.94;;;16.53;75.99
52927;BME280;40783;49.710;8.842;2023-07-02T03:42:10;98439.41;;;16.68;77.37
52927;BME280;40783;49.710;8.842;2023-07-02T03:44:35;98436.91;;;16.66;77.02
52927;BME280;40783;49.710;8.842;2023-07-02T03:47:00;98438.97;;;16.64;77.18
52927;BME280;40783;49.710;8.842;2023-07-02T03:49:25;98437.50;;;16.68;76.38
52927;BME280;40783;49.710;8.842;2023-07-02T03:51:51;98452.03;;;16.67;76.86
52927;BME280;40783;49.710;8.842;2023-07-02T03:54:18;98448.72;;;16.65;76.89
52927;BME280;40783;49.710;8.842;2023-07-02T03:56:45;98457.69;;;16.66;77.60
52927;BME280;40783;49.710;8.842;2023-07-02T03:59:11;98457.25;;;16.62;77.69
52927;BME280;40783;49.710;8.842;2023-07-02T04:01:36;98462.66;;;16.69;76.72
52927;BME280;40783;49.710;8.842;2023-07-02T04:04:01;98456.47;;;16.55;78.33
52927;BME280;40783;49.710;8.842;2023-07-02T04:06:26;98465.34;;;16.62;79.03
52927;BME280;40783;49.710;8.842;2023-07-02T04:08:51;98471.00;;;16.60;78.87
52927;BME280;40783;49.710;8.842;2023-07-02T04:11:17;98479.69;;;16.63;78.82
52927;BME280;40783;49.710;8.842;2023-07-02T04:13:42;98482.59;;;16.61;78.44
52927;BME280;40783;49.710;8.842;2023-07-02T04:16:07;98485.91;;;16.63;78.61
52927;BME280;40783;49.710;8.842;2023-07-02T04:18:35;98491.31;;;16.63;78.99
52927;BME280;40783;49.710;8.842;2023-07-02T04:21:02;98499.59;;;16.68;78.79
52927;BME280;40783;49.710;8.842;2023-07-02T04:23:28;98498.75;;;16.74;79.23
52927;BME280;40783;49.710;8.842;2023-07-02T04:25:53;98500.81;;;16.72;78.60
52927;BME280;40783;49.710;8.842;2023-07-02T04:28:18;98499.97;;;16.79;79.04
52927;BME280;40783;49.710;8.842;2023-07-02T04:30:44;98501.63;;;16.80;79.16
52927;BME280;40783;49.710;8.842;2023-07-02T04:33:09;98502.44;;;16.80;79.13
52927;BME280;40783;49.710;8.842;2023-07-02T04:35:38;98512.00;;;16.83;79.30
52927;BME280;40783;49.710;8.842;2023-07-02T04:38:04;98504.09;;;16.88;78.20
52927;BME280;40783;49.710;8.842;2023-07-02T04:40:29;98508.25;;;16.84;79.00
52927;BME280;40783;49.710;8.842;2023-07-02T04:42:54;98510.16;;;16.76;79.36
52927;BME280;40783;49.710;8.842;2023-07-02T04:45:25;98516.56;;;16.82;79.21
52927;BME280;40783;49.710;8.842;2023-07-02T04:47:57;98508.84;;;16.92;79.04
52927;BME280;40783;49.710;8.842;2023-07-02T04:50:22;98519.00;;;16.97;79.59
52927;BME280;40783;49.710;8.842;2023-07-02T04:52:49;98516.50;;;16.96;79.50
52927;BME280;40783;49.710;8.842;2023-07-02T04:55:14;98523.78;;;16.95;79.40
52927;BME280;40783;49.710;8.842;2023-07-02T04:57:40;98518.63;;;16.87;79.97
52927;BME280;40783;49.710;8.842;2023-07-02T05:00:05;98527.34;;;16.89;80.13
52927;BME280;40783;49.710;8.842;2023-07-02T05:02:33;98526.06;;;16.98;79.69
52927;BME280;40783;49.710;8.842;2023-07-02T05:04:59;98528.94;;;17.03;79.73
52927;BME280;40783;49.710;8.842;2023-07-02T05:07:24;98529.75;;;17.11;79.97
52927;BME280;40783;49.710;8.842;2023-07-02T05:09:49;98535.16;;;17.11;79.75
52927;BME280;40783;49.710;8.842;2023-07-02T05:12:16;98536.19;;;17.10;79.69
52927;BME280;40783;49.710;8.842;2023-07-02T05:14:42;98541.78;;;17.15;79.87
52927;BME280;40783;49.710;8.842;2023-07-02T05:17:07;98536.00;;;17.11;80.20
52927;BME280;40783;49.710;8.842;2023-07-02T05:19:34;98550.13;;;17.06;79.82
52927;BME280;40783;49.710;8.842;2023-07-02T05:21:59;98557.78;;;17.16;80.53
52927;BME280;40783;49.710;8.842;2023-07-02T05:24:24;98549.03;;;17.21;80.43
52927;BME280;40783;49.710;8.842;2023-07-02T05:26:52;98551.28;;;17.24;80.11
52927;BME280;40783;49.710;8.842;2023-07-02T05:29:18;98557.94;;;17.28;79.73
52927;BME280;40783;49.710;8.842;2023-07-02T05:31:48;98548.34;;;17.32;81.43
52927;BME280;40783;49.710;8.842;2023-07-02T05:34:13;98552.88;;;17.39;80.89
52927;BME280;40783;49.710;8.842;2023-07-02T05:36:38;98549.75;;;17.42;80.87
52927;BME280;40783;49.710;8.842;2023-07-02T05:39:03;98547.47;;;17.39;80.62
52927;BME280;40783;49.710;8.842;2023-07-02T05:41:31;98549.47;;;17.50;80.66
52927;BME280;40783;49.710;8.842;2023-07-02T05:43:57;98558.59;;;17.56;79.97
52927;BME280;40783;49.710;8.842;2023-07-02T05:46:24;98564.44;;;17.53;81.77
52927;BME280;40783;49.710;8.842;2023-07-02T05:48:49;98548.94;;;17.67;80.20
52927;BME280;40783;49.710;8.842;2023-07-02T05:51:21;98569.09;;;17.71;81.47
52927;BME280;40783;49.710;8.842;2023-07-02T05:53:47;98560.97;;;17.71;80.17
52927;BME280;40783;49.710;8.842;2023-07-02T05:56:14;98564.13;;;17.68;81.00
52927;BME280;40783;49.710;8.842;2023-07-02T05:58:42;98564.72;;;17.70;79.09
52927;BME280;40783;49.710;8.842;2023-07-02T06:01:07;98576.75;;;17.74;79.78
52927;BME280;40783;49.710;8.842;2023-07-02T06:03:32;98563.94;;;17.62;80.86
52927;BME280;40783;49.710;8.842;2023-07-02T06:05:57;98565.72;;;17.75;80.53
52927;BME280;40783;49.710;8.842;2023-07-02T06:08:25;98569.88;;;17.78;80.92
52927;BME280;40783;49.710;8.842;2023-07-02T06:10:50;98573.19;;;17.80;80.41
52927;BME280;40783;49.710;8.842;2023-07-02T06:13:16;98571.28;;;17.80;80.18
52927;BME280;40783;49.710;8.842;2023-07-02T06:15:43;98574.50;;;17.96;79.88
52927;BME280;40783;49.710;8.842;2023-07-02T06:18:08;98583.22;;;17.98;80.42
52927;BME280;40783;49.710;8.842;2023-07-02T06:20:33;98573.69;;;17.95;79.70
52927;BME280;40783;49.710;8.842;2023-07-02T06:22:59;98586.00;;;17.91;79.51
52927;BME280;40783;49.710;8.842;2023-07-02T06:25:26;98579.53;;;17.92;79.15
52927;BME280;40783;49.710;8.842;2023-07-02T06:27:51;98586.91;;;18.11;79.88
52927;BME280;40783;49.710;8.842;2023-07-02T06:30:19;98587.44;;;18.01;78.94
52927;BME280;40783;49.710;8.842;2023-07-02T06:32:45;98578.66;;;17.99;79.54
52927;BME280;40783;49.710;8.842;2023-07-02T06:35:10;98588.16;;;18.08;78.45
52927;BME280;40783;49.710;8.842;2023-07-02T06:37:35;98579.41;;;18.13;78.77
52927;BME280;40783;49.710;8.842;2023-07-02T06:40:00;98579.34;;;18.19;79.10
52927;BME280;40783;49.710;8.842;2023-07-02T06:42:26;98585.06;;;18.30;76.61
52927;BME280;40783;49.710;8.842;2023-07-02T06:44:53;98592.22;;;18.43;76.39
52927;BME280;40783;49.710;8.842;2023-07-02T06:47:18;98590.03;;;18.33;76.64
52927;BME280;40783;49.710;8.842;2023-07-02T06:49:46;98593.69;;;18.64;76.43
52927;BME280;40783;49.710;8.842;2023-07-02T06:52:11;98583.09;;;19.00;76.45
52927;BME280;40783;49.710;8.842;2023-07-02T06:54:36;98590.81;;;19.15;75.62
52927;BME280;40783;49.710;8.842;2023-07-02T06:57:03;98594.72;;;19.37;72.89
52927;BME280;40783;49.710;8.842;2023-07-02T06:59:29;98587.72;;;19.60;72.86
52927;BME280;40783;49.710;8.842;2023-07-02T07:01:54;98593.53;;;19.76;71.24
52927;BME280;40783;49.710;8.842;2023-07-02T07:04:19;98591.94;;;19.86;72.07
52927;BME280;40783;49.710;8.842;2023-07-02T07:06:47;98596.34;;;19.99;71.33
52927;BME280;40783;49.710;8.842;2023-07-02T07:09:17;98594.31;;;19.95;69.24
52927;BME280;40783;49.710;8.842;2023-07-02T07:11:43;98592.31;;;20.14;68.01
52927;BME280;40783;49.710;8.842;2023-07-02T07:14:10;98597.53;;;20.27;68.81
52927;BME280;40783;49.710;8.842;2023-07-02T07:16:37;98594.72;;;20.46;68.28
52927;BME280;40783;49.710;8.842;2023-07-02T07:19:03;98590.69;;;20.60;67.43
52927;BME280;40783;49.710;8.842;2023-07-02T07:21:28;98582.16;;;20.69;66.91
52927;BME280;40783;49.710;8.842;2023-07-02T07:23:53;98589.81;;;20.72;67.01
52927;BME280;40783;49.710;8.842;2023-07-02T07:26:21;98593.50;;;20.89;66.12
52927;BME280;40783;49.710;8.842;2023-07-02T07:28:46;98587.31;;;20.94;64.20
52927;BME280;40783;49.710;8.842;2023-07-02T07:31:11;98592.75;;;21.06;65.29
52927;BME280;40783;49.710;8.842;2023-07-02T07:33:36;98589.56;;;21.09;65.64
52927;BME280;40783;49.710;8.842;2023-07-02T07:36:01;98591.31;;;21.15;64.32
52927;BME280;40783;49.710;8.842;2023-07-02T07:38:27;98594.78;;;21.28;64.96
52927;BME280;40783;49.710;8.842;2023-07-02T07:40:52;98588.59;;;21.44;62.87
52927;BME280;40783;49.710;8.842;2023-07-02T07:43:17;98587.19;;;21.71;63.47
52927;BME280;40783;49.710;8.842;2023-07-02T07:45:42;98590.97;;;21.70;60.48
52927;BME280;40783;49.710;8.842;2023-07-02T07:48:10;98580.72;;;21.60;60.50
52927;BME280;40783;49.710;8.842;2023-07-02T07:50:35;98593.25;;;21.61;60.96
52927;BME280;40783;49.710;8.842;2023-07-02T07:53:00;98591.50;;;21.26;59.60
52927;BME280;40783;49.710;8.842;2023-07-02T07:55:26;98594.19;;;20.97;60.74
52927;BME280;40783;49.710;8.842;2023-07-02T07:57:51;98606.34;;;21.35;60.34
52927;BME280;40783;49.710;8.842;2023-07-02T08:00:16;98591.63;;;21.48;59.16
52927;BME280;40783;49.710;8.842;2023-07-02T08:02:42;98591.25;;;21.56;58.23
52927;BME280;40783;49.710;8.842;2023-07-02T08:05:07;98589.13;;;21.29;57.90
52927;BME280;40783;49.710;8.842;2023-07-02T08:07:33;98584.72;;;21.11;58.85
52927;BME280;40783;49.710;8.842;2023-07-02T08:09:58;98591.84;;;20.88;56.85
52927;BME280;40783;49.710;8.842;2023-07-02T08:12:23;98587.59;;;20.69;58.17
52927;BME280;40783;49.710;8.842;2023-07-02T08:14:49;98588.34;;;20.52;61.11
52927;BME280;40783;49.710;8.842;2023-07-02T08:17:16;98601.19;;;20.57;59.43
52927;BME280;40783;49.710;8.842;2023-07-02T08:19:41;98605.91;;;20.38;58.96
52927;BME280;40783;49.710;8.842;2023-07-02T08:22:07;98604.38;;;20.18;61.29
52927;BME280;40783;49.710;8.842;2023-07-02T08:24:32;98601.91;;;20.05;60.91
52927;BME280;40783;49.710;8.842;2023-07-02T08:26:58;98603.81;;;20.28;60.03
52927;BME280;40783;49.710;8.842;2023-07-02T08:29:23;98602.72;;;20.53;60.66
52927;BME280;40783;49.710;8.842;2023-07-02T08:31:49;98593.53;;;20.66;60.33
52927;BME280;40783;49.710;8.842;2023-07-02T08:34:14;98607.78;;;20.73;58.38
52927;BME280;40783;49.710;8.842;2023-07-02T08:36:39;98598.34;;;20.87;57.90
52927;BME280;40783;49.710;8.842;2023-07-02T08:39:04;98601.53;;;20.84;58.26
52927;BME280;40783;49.710;8.842;2023-07-02T08:41:30;98596.31;;;20.71;58.81
52927;BME280;40783;49.710;8.842;2023-07-02T08:43:59;98600.47;;;20.73;56.53
52927;BME280;40783;49.710;8.842;2023-07-02T08:46:25;98602.00;;;20.81;57.74
52927;BME280;40783;49.710;8.842;2023-07-02T08:48:50;98596.78;;;20.68;56.87
52927;BME280;40783;49.710;8.842;2023-07-02T08:51:15;98608.88;;;20.84;55.58
52927;BME280;40783;49.710;8.842;2023-07-02T08:53:43;98597.81;;;21.02;56.09
52927;BME280;40783;49.710;8.842;2023-07-02T08:56:08;98599.53;;;20.92;55.83
52927;BME280;40783;49.710;8.842;2023-07-02T08:58:33;98607.94;;;20.78;55.17
52927;BME280;40783;49.710;8.842;2023-07-02T09:01:06;98600.81;;;20.65;57.65
52927;BME280;40783;49.710;8.842;2023-07-02T09:03:34;98608.38;;;20.63;56.79
52927;BME280;40783;49.710;8.842;2023-07-02T09:06:04;98602.72;;;20.88;56.09
52927;BME280;40783;49.710;8.842;2023-07-02T09:08:30;98603.66;;;20.82;56.41
52927;BME280;40783;49.710;8.842;2023-07-02T09:11:14;98610.84;;;21.00;56.57
52927;BME280;40783;49.710;8.842;2023-07-02T09:16:19;98615.34;;;20.95;55.99
52927;BME280;40783;49.710;8.842;2023-07-02T09:18:45;98630.03;;;20.82;57.00
52927;BME280;40783;49.710;8.842;2023-07-02T09:21:19;98630.34;;;20.73;57.70
52927;BME280;40783;49.710;8.842;2023-07-02T09:23:47;98631.41;;;20.49;58.85
52927;BME280;40783;49.710;8.842;2023-07-02T09:26:19;98632.59;;;20.53;58.60
52927;BME280;40783;49.710;8.842;2023-07-02T09:28:44;98628.59;;;20.79;57.37
52927;BME280;40783;49.710;8.842;2023-07-02T09:31:09;98630.13;;;20.99;56.76
52927;BME280;40783;49.710;8.842;2023-07-02T09:33:34;98630.41;;;21.26;56.46
52927;BME280;40783;49.710;8.842;2023-07-02T09:36:00;98630.25;;;21.33;55.15
52927;BME280;40783;49.710;8.842;2023-07-02T09:38:27;98634.72;;;21.10;53.72
52927;BME280;40783;49.710;8.842;2023-07-02T09:40:52;98628.78;;;21.01;54.57
52927;BME280;40783;49.710;8.842;2023-07-02T09:43:18;98623.50;;;20.95;56.25
52927;BME280;40783;49.710;8.842;2023-07-02T09:45:44;98630.59;;;20.96;55.32
52927;BME280;40783;49.710;8.842;2023-07-02T09:48:13;98617.72;;;20.91;54.63
52927;BME280;40783;49.710;8.842;2023-07-02T09:50:43;98624.91;;;21.09;55.49
52927;BME280;40783;49.710;8.842;2023-07-02T09:53:11;98631.47;;;21.25;56.07
52927;BME280;40783;49.710;8.842;2023-07-02T09:55:39;98621.28;;;21.20;55.31
52927;BME280;40783;49.710;8.842;2023-07-02T09:58:06;98633.75;;;21.04;55.34
52927;BME280;40783;49.710;8.842;2023-07-02T10:00:35;98625.84;;;21.03;54.11
52927;BME280;40783;49.710;8.842;2023-07-02T10:03:00;98616.25;;;21.12;53.79
52927;BME280;40783;49.710;8.842;2023-07-02T10:05:29;98615.47;;;21.29;54.01
52927;BME280;40783;49.710;8.842;2023-07-02T10:07:55;98627.31;;;21.23;54.56
52927;BME280;40783;49.710;8.842;2023-07-02T10:10:27;98625.44;;;21.23;53.82
52927;BME280;40783;49.710;8.842;2023-07-02T10:12:56;98627.91;;;21.25;52.93
52927;BME280;40783;49.710;8.842;2023-07-02T10:15:25;98628.75;;;21.25;52.85
52927;BME280;40783;49.710;8.842;2023-07-02T10:17:58;98616.28;;;21.41;52.80
52927;BME280;40783;49.710;8.842;2023-07-02T10:20:37;98628.16;;;21.52;52.88
52927;BME280;40783;49.710;8.842;2023-07-02T10:23:03;98615.81;;;21.61;52.00
52927;BME280;40783;49.710;8.842;2023-07-02T10:25:29;98620.50;;;21.78;51.88
52927;BME280;40783;49.710;8.842;2023-07-02T10:27:55;98615.00;;;21.61;51.82
52927;BME280;40783;49.710;8.842;2023-07-02T10:30:30;98618.75;;;21.43;52.25
52927;BME280;40783;49.710;8.842;2023-07-02T10:33:06;98630.22;;;21.74;52.71
52927;BME280;40783;49.710;8.842;2023-07-02T10:35:32;98618.59;;;21.78;51.67
52927;BME280;40783;49.710;8.842;2023-07-02T10:37:58;98615.28;;;21.76;51.07
52927;BME280;40783;49.710;8.842;2023-07-02T10:40:23;98618.34;;;21.63;50.54
52927;BME280;40783;49.710;8.842;2023-07-02T10:42:49;98608.22;;;21.46;50.46
52927;BME280;40783;49.710;8.842;2023-07-02T10:45:15;98613.25;;;21.55;51.01
52927;BME280;40783;49.710;8.842;2023-07-02T10:47:41;98622.31;;;21.72;49.92
52927;BME280;40783;49.710;8.842;2023-07-02T10:50:18;98617.22;;;21.76;50.04
52927;BME280;40783;49.710;8.842;2023-07-02T10:52:44;98608.66;;;21.84;50.95
52927;BME280;40783;49.710;8.842;2023-07-02T10:55:11;98607.75;;;21.96;47.92
52927;BME280;40783;49.710;8.842;2023-07-02T10:57:40;98621.50;;;21.89;48.60
52927;BME280;40783;49.710;8.842;2023-07-02T11:00:06;98609.31;;;21.91;48.63
52927;BME280;40783;49.710;8.842;2023-07-02T11:02:35;98608.66;;;21.84;48.32
52927;BME280;40783;49.710;8.842;2023-07-02T11:05:00;98608.16;;;22.04;49.77
52927;BME280;40783;49.710;8.842;2023-07-02T11:07:28;98606.59;;;22.08;49.42
52927;BME280;40783;49.710;8.842;2023-07-02T11:09:55;98616.25;;;22.16;48.12
52927;BME280;40783;49.710;8.842;2023-07-02T11:12:29;98609.31;;;22.26;47.42
52927;BME280;40783;49.710;8.842;2023-07-02T11:14:54;98601.88;;;22.38;50.91
52927;BME280;40783;49.710;8.842;2023-07-02T11:17:25;98623.19;;;22.24;48.04
52927;BME280;40783;49.710;8.842;2023-07-02T11:19:53;98613.94;;;22.25;46.42
52927;BME280;40783;49.710;8.842;2023-07-02T11:22:19;98613.59;;;22.38;49.74
52927;BME280;40783;49.710;8.842;2023-07-02T11:24:46;98608.03;;;22.45;48.08
52927;BME280;40783;49.710;8.842;2023-07-02T11:27:20;98601.28;;;22.70;48.71
52927;BME280;40783;49.710;8.842;2023-07-02T11:29:45;98616.59;;;22.54;46.32
52927;BME280;40783;49.710;8.842;2023-07-02T11:32:11;98620.03;;;22.32;45.74
52927;BME280;40783;49.710;8.842;2023-07-02T11:34:37;98621.88;;;22.44;46.60
52927;BME280;40783;49.710;8.842;2023-07-02T11:37:03;98621.19;;;22.36;46.40
52927;BME280;40783;49.710;8.842;2023-07-02T11:39:29;98615.44;;;22.16;46.81
52927;BME280;40783;49.710;8.842;2023-07-02T11:41:54;98608.00;;;22.11;47.62
52927;BME280;40783;49.710;8.842;2023-07-02T11:44:20;98613.13;;;22.07;47.19
52927;BME280;40783;49.710;8.842;2023-07-02T11:46:45;98619.22;;;22.15;47.25
52927;BME280;40783;49.710;8.842;2023-07-02T11:49:13;98611.63;;;22.17;46.57
52927;BME280;40783;49.710;8.842;2023-07-02T11:51:41;98611.97;;;22.03;47.40
52927;BME280;40783;49.710;8.842;2023-07-02T11:54:07;98616.75;;;21.96;48.07
52927;BME280;40783;49.710;8.842;2023-07-02T11:56:32;98605.69;;;22.20;48.06
52927;BME280;40783;49.710;8.842;2023-07-02T11:58:59;98616.59;;;22.20;46.93
52927;BME280;40783;49.710;8.842;2023-07-02T12:01:25;98605.91;;;22.35;49.09
52927;BME280;40783;49.710;8.842;2023-07-02T12:03:50;98607.84;;;22.52;48.81
52927;BME280;40783;49.710;8.842;2023-07-02T12:06:15;98608.41;;;22.54;46.99
52927;BME280;40783;49.710;8.842;2023-07-02T12:08:40;98612.13;;;22.48;46.95
52927;BME280;40783;49.710;8.842;2023-07-02T12:11:06;98617.09;;;22.17;47.01
52927;BME280;40783;49.710;8.842;2023-07-02T12:13:31;98620.88;;;22.16;46.95
52927;BME280;40783;49.710;8.842;2023-07-02T12:15:56;98612.94;;;22.31;47.14
52927;BME280;40783;49.710;8.842;2023-07-02T12:18:21;98616.72;;;22.30;47.12
52927;BME280;40783;49.710;8.842;2023-07-02T12:20:47;98614.44;;;22.56;48.80
52927;BME280;40783;49.710;8.842;2023-07-02T12:23:12;98613.25;;;22.69;47.03
52927;BME280;40783;49.710;8.842;2023-07-02T12:25:37;98610.47;;;22.86;48.06
52927;BME280;40783;49.710;8.842;2023-07-02T12:28:05;98605.97;;;22.75;46.37
52927;BME280;40783;49.710;8.842;2023-07-02T12:30:33;98600.03;;;22.78;44.80
52927;BME280;40783;49.710;8.842;2023-07-02T12:32:58;98606.47;;;22.72;45.97
52927;BME280;40783;49.710;8.842;2023-07-02T12:35:26;98609.94;;;22.67;47.37
52927;BME280;40783;49.710;8.842;2023-07-02T12:37:55;98614.47;;;22.78;46.48
52927;BME280;40783;49.710;8.842;2023-07-02T12:40:23;98612.44;;;22.68;46.12
52927;BME280;40783;49.710;8.842;2023-07-02T12:42:52;98618.00;;;22.79;46.37
52927;BME280;40783;49.710;8.842;2023-07-02T12:45:20;98601.22;;;22.87;46.73
52927;BME280;40783;49.710;8.842;2023-07-02T12:47:45;98618.66;;;22.86;45.15
52927;BME280;40783;49.710;8.842;2023-07-02T12:50:12;98627.53;;;22.98;44.32
52927;BME280;40783;49.710;8.842;2023-07-02T12:52:37;98628.91;;;22.79;43.73
52927;BME280;40783;49.710;8.842;2023-07-02T12:55:03;98622.25;;;22.70;44.64
52927;BME280;40783;49.710;8.842;2023-07-02T12:57:29;98630.69;;;22.90;44.18
52927;BME280;40783;49.710;8.842;2023-07-02T12:59:54;98634.72;;;23.05;44.04